Time;durP1;ratioP1;P1;durP2;ratioP2;P2;SDS_P1;SDS_P2;PMS_P1;PMS_P2;Temp;Humidity;BMP_temperature;BMP_pressure;BME280_temperature;BME280_humidity;BME280_pressure;Samples;Min_cycle;Max_cycle;Signal;HPM_P1;HPM_P2
2021/11/04 00:00:37;;;;;;;;;27.00;27.00;16.30;62.60;;;;;;5035128;28;8774;-74
2021/11/04 00:03:03;;;;;;;;;25.67;25.67;16.40;62.20;;;;;;5035039;28;8851;-72
2021/11/04 00:05:30;;;;;;;;;24.00;24.00;16.70;61.10;;;;;;5036851;28;8773;-73
2021/11/04 00:07:59;;;;;;;;;17.33;17.33;16.90;60.60;;;;;;5038670;28;9423;-73
2021/11/04 00:10:25;;;;;;;;;25.33;25.33;16.60;61.20;;;;;;5038284;28;8777;-72
2021/11/04 00:12:52;;;;;;;;;25.67;25.67;16.40;62.00;;;;;;5038382;28;8766;-73
2021/11/04 00:15:18;;;;;;;;;26.33;26.00;16.60;61.80;;;;;;5038386;28;8793;-72
2021/11/04 00:17:43;;;;;;;;;25.33;25.33;16.70;61.20;;;;;;5038420;28;8872;-73
2021/11/04 00:20:12;;;;;;;;;24.33;24.33;16.60;61.20;;;;;;5038154;28;8847;-72
2021/11/04 00:22:38;;;;;;;;;23.00;23.00;16.40;62.20;;;;;;5037919;28;8829;-74
2021/11/04 00:25:06;;;;;;;;;29.33;27.33;16.10;63.10;;;;;;5038114;28;8785;-75
2021/11/04 00:27:32;;;;;;;;;23.00;23.00;16.00;63.60;;;;;;5038079;28;8872;-74
2021/11/04 00:29:58;;;;;;;;;21.00;21.00;15.90;63.70;;;;;;5038239;28;8875;-75
2021/11/04 00:32:24;;;;;;;;;22.33;22.33;16.00;63.80;;;;;;5038290;28;8803;-74
2021/11/04 00:34:49;;;;;;;;;20.33;20.33;16.20;62.80;;;;;;5037748;28;8798;-73
2021/11/04 00:37:15;;;;;;;;;20.67;20.67;16.00;63.50;;;;;;5037826;28;8785;-75
2021/11/04 00:39:41;;;;;;;;;21.00;21.00;16.20;63.10;;;;;;5038066;28;8876;-74
2021/11/04 00:42:07;;;;;;;;;20.67;19.00;16.30;62.50;;;;;;5037794;28;8766;-75
2021/11/04 00:44:33;;;;;;;;;16.33;16.33;16.20;62.70;;;;;;5038012;28;8768;-76
2021/11/04 00:46:59;;;;;;;;;18.67;18.67;16.00;63.40;;;;;;5037642;28;8776;-74
2021/11/04 00:49:24;;;;;;;;;17.67;17.67;16.00;63.50;;;;;;5037615;28;8758;-72
2021/11/04 00:51:51;;;;;;;;;20.33;20.33;16.00;63.50;;;;;;5037779;28;8932;-73
2021/11/04 00:54:17;;;;;;;;;19.00;19.00;16.10;63.40;;;;;;5037547;28;8765;-73
2021/11/04 00:56:43;;;;;;;;;21.67;21.67;16.20;63.40;;;;;;5037525;28;8824;-75
2021/11/04 00:59:09;;;;;;;;;18.33;18.33;16.20;62.90;;;;;;5037455;28;8785;-76
2021/11/04 01:01:35;;;;;;;;;17.67;17.67;16.20;62.80;;;;;;5037387;28;8836;-74
2021/11/04 01:04:00;;;;;;;;;17.00;17.00;16.30;62.90;;;;;;5037298;28;8790;-72
2021/11/04 01:06:26;;;;;;;;;18.00;18.00;16.50;62.50;;;;;;5037625;28;8790;-76
2021/11/04 01:08:52;;;;;;;;;16.33;16.33;16.50;62.10;;;;;;5037279;28;8785;-73
2021/11/04 01:11:20;;;;;;;;;18.67;18.67;16.40;62.80;;;;;;5037521;28;8896;-73
2021/11/04 01:13:46;;;;;;;;;15.33;15.33;16.40;62.90;;;;;;5036086;28;8805;-75
2021/11/04 01:16:12;;;;;;;;;18.00;17.00;16.40;62.80;;;;;;5036922;28;8875;-75
2021/11/04 01:18:39;;;;;;;;;15.00;15.00;16.40;63.00;;;;;;5037343;28;8770;-74
2021/11/04 01:21:04;;;;;;;;;13.67;13.67;16.40;62.80;;;;;;5037052;28;8773;-75
2021/11/04 01:23:30;;;;;;;;;15.00;15.00;16.40;63.00;;;;;;5036737;28;8822;-74
2021/11/04 01:25:56;;;;;;;;;12.67;12.67;16.40;63.20;;;;;;5036732;28;8758;-74
2021/11/04 01:28:22;;;;;;;;;13.00;13.00;16.40;63.60;;;;;;5036839;28;8816;-75
2021/11/04 01:30:48;;;;;;;;;13.67;13.67;16.40;63.40;;;;;;5037069;28;8878;-74
2021/11/04 01:33:14;;;;;;;;;14.33;14.33;16.40;63.40;;;;;;5037090;28;8871;-76
2021/11/04 01:35:40;;;;;;;;;12.33;12.33;16.50;63.10;;;;;;5036648;28;8809;-74
2021/11/04 01:38:07;;;;;;;;;9.00;9.00;16.50;63.20;;;;;;5036778;28;8840;-75
2021/11/04 01:40:34;;;;;;;;;10.33;10.33;16.40;63.30;;;;;;5036657;28;8806;-75
2021/11/04 01:43:01;;;;;;;;;12.00;12.00;16.50;63.30;;;;;;5052237;28;8858;-74
2021/11/04 01:45:26;;;;;;;;;12.33;12.33;16.50;63.40;;;;;;5036543;28;8778;-75
2021/11/04 01:47:53;;;;;;;;;11.00;11.00;16.50;63.40;;;;;;5036849;28;8781;-74
2021/11/04 01:50:22;;;;;;;;;13.33;13.33;16.50;63.20;;;;;;5036565;28;8758;-75
2021/11/04 01:52:49;;;;;;;;;10.33;10.33;16.60;63.10;;;;;;5036691;28;8916;-76
2021/11/04 01:55:17;;;;;;;;;11.67;11.67;16.60;62.90;;;;;;5036132;28;9434;-76
2021/11/04 01:57:43;;;;;;;;;12.00;12.00;16.60;62.90;;;;;;5035407;28;8765;-76
2021/11/04 02:00:10;;;;;;;;;11.67;11.67;16.60;63.00;;;;;;5036340;28;8765;-76
2021/11/04 02:02:50;;;;;;;;;7.33;7.33;16.70;62.60;;;;;;5036325;28;8770;-75
2021/11/04 02:05:25;;;;;;;;;6.67;6.67;16.80;62.60;;;;;;5034706;28;8778;-74
2021/11/04 02:08:12;;;;;;;;;10.33;10.33;16.80;62.60;;;;;;5036523;28;8774;-76
2021/11/04 02:10:51;;;;;;;;;10.33;10.33;16.90;62.50;;;;;;5051332;28;8774;-73
2021/11/04 02:13:30;;;;;;;;;9.33;9.33;16.90;62.30;;;;;;5036267;28;8794;-73
2021/11/04 02:16:00;;;;;;;;;11.33;11.33;16.90;62.20;;;;;;5036012;28;8789;-75
2021/11/04 02:18:34;;;;;;;;;9.33;9.33;17.00;61.90;;;;;;5036067;28;8800;-74
2021/11/04 02:21:09;;;;;;;;;10.33;10.33;17.00;61.80;;;;;;5036512;28;8779;-75
2021/11/04 02:23:38;;;;;;;;;6.67;6.67;17.00;62.20;;;;;;5035778;28;8840;-74
2021/11/04 02:26:05;;;;;;;;;11.33;10.67;17.00;62.00;;;;;;5051417;28;8770;-75
2021/11/04 02:28:34;;;;;;;;;10.00;10.00;17.10;62.00;;;;;;5035288;28;8761;-76
2021/11/04 02:31:02;;;;;;;;;10.00;10.00;17.10;61.90;;;;;;5036290;28;8778;-75
2021/11/04 02:33:29;;;;;;;;;9.67;9.00;17.00;62.20;;;;;;5035735;28;8754;-77
2021/11/04 02:35:57;;;;;;;;;12.00;12.00;17.00;62.30;;;;;;5035577;28;8809;-74
2021/11/04 02:38:31;;;;;;;;;9.33;9.33;17.00;62.60;;;;;;5035555;28;8797;-75
2021/11/04 02:40:59;;;;;;;;;8.33;8.33;16.90;62.50;;;;;;5035637;28;8804;-75
2021/11/04 02:43:26;;;;;;;;;11.00;11.00;16.90;62.70;;;;;;5035367;28;11456;-74
2021/11/04 02:45:53;;;;;;;;;10.00;10.00;16.90;63.10;;;;;;5051315;28;8801;-77
2021/11/04 02:48:19;;;;;;;;;8.00;8.00;16.90;63.00;;;;;;5035443;28;8781;-77
2021/11/04 02:50:47;;;;;;;;;9.00;9.00;16.90;63.10;;;;;;5035335;28;11482;-76
2021/11/04 02:53:21;;;;;;;;;8.33;8.33;16.90;62.90;;;;;;5035182;28;8793;-75
2021/11/04 02:55:49;;;;;;;;;9.00;8.33;16.90;62.50;;;;;;5035564;28;8896;-75
2021/11/04 02:58:16;;;;;;;;;6.00;6.00;17.00;62.30;;;;;;5035214;28;8766;-76
2021/11/04 03:00:45;;;;;;;;;7.00;7.00;17.10;61.80;;;;;;5035205;28;8784;-75
2021/11/04 03:03:10;;;;;;;;;11.67;11.67;17.20;61.90;;;;;;5035033;28;8793;-74
2021/11/04 03:05:36;;;;;;;;;8.67;8.67;17.10;62.10;;;;;;5035086;28;8766;-74
2021/11/04 03:08:03;;;;;;;;;9.33;9.33;17.10;62.20;;;;;;5050625;28;8762;-77
2021/11/04 03:10:29;;;;;;;;;8.00;8.00;17.10;62.30;;;;;;5035234;28;8827;-74
2021/11/04 03:12:55;;;;;;;;;7.33;7.33;17.20;62.40;;;;;;5034984;28;8766;-77
2021/11/04 03:15:23;;;;;;;;;6.67;6.67;17.20;61.90;;;;;;5034983;28;8789;-77
2021/11/04 03:17:52;;;;;;;;;6.00;6.00;17.50;60.90;;;;;;5034961;28;8855;-76
2021/11/04 03:20:20;;;;;;;;;8.67;8.67;17.50;60.40;;;;;;5034771;28;11912;-76
2021/11/04 03:22:47;;;;;;;;;8.33;8.33;17.60;60.40;;;;;;5034621;28;8837;-74
2021/11/04 03:25:15;;;;;;;;;9.00;9.00;17.60;60.30;;;;;;5035091;28;8762;-75
2021/11/04 03:27:43;;;;;;;;;10.33;10.33;17.70;60.00;;;;;;5034744;28;8836;-74
2021/11/04 03:30:13;;;;;;;;;8.00;8.00;17.60;59.90;;;;;;5034949;28;9451;-74
2021/11/04 03:32:40;;;;;;;;;7.00;7.00;17.70;59.70;;;;;;5034429;28;11456;-73
2021/11/04 03:35:08;;;;;;;;;6.67;6.67;17.80;59.50;;;;;;5034544;28;8797;-74
2021/11/04 03:37:37;;;;;;;;;5.33;5.33;17.80;59.50;;;;;;5034828;28;11462;-73
2021/11/04 03:40:04;;;;;;;;;7.33;7.33;17.80;59.40;;;;;;5033853;28;8766;-73
2021/11/04 03:42:31;;;;;;;;;7.00;7.00;17.90;59.50;;;;;;5034380;28;11465;-74
2021/11/04 03:44:59;;;;;;;;;7.33;7.33;17.90;59.20;;;;;;5034719;28;11439;-75
2021/11/04 03:47:29;;;;;;;;;9.67;9.67;17.80;59.40;;;;;;5034409;28;11451;-74
2021/11/04 03:49:57;;;;;;;;;7.33;7.33;17.80;59.50;;;;;;5034592;28;8738;-75
2021/11/04 03:52:23;;;;;;;;;9.00;9.00;17.80;59.50;;;;;;5034544;28;11462;-75
2021/11/04 03:54:50;;;;;;;;;9.33;9.33;17.80;59.50;;;;;;5034240;28;11441;-74
2021/11/04 03:57:18;;;;;;;;;7.67;7.67;17.80;59.50;;;;;;5034233;28;11559;-74
2021/11/04 03:59:45;;;;;;;;;7.00;7.00;17.80;59.50;;;;;;5034371;28;11493;-73
2021/11/04 04:02:11;;;;;;;;;7.33;7.33;17.80;59.80;;;;;;5049722;28;11474;-73
2021/11/04 04:04:39;;;;;;;;;2.00;2.00;17.80;59.50;;;;;;5034306;28;8800;-74
2021/11/04 04:07:05;;;;;;;;;6.33;6.33;17.80;59.70;;;;;;5034150;28;11544;-75
2021/11/04 04:09:31;;;;;;;;;7.00;7.00;17.80;60.40;;;;;;5049617;28;8793;-74
2021/11/04 04:11:57;;;;;;;;;6.67;6.67;17.80;59.50;;;;;;5034192;28;11491;-74
2021/11/04 04:14:23;;;;;;;;;5.00;5.00;17.80;59.60;;;;;;5034112;28;12131;-74
2021/11/04 04:16:49;;;;;;;;;8.00;8.00;17.80;59.90;;;;;;5034006;28;11467;-74
2021/11/04 04:19:15;;;;;;;;;8.00;8.00;17.70;59.90;;;;;;5034158;28;8770;-76
2021/11/04 04:21:41;;;;;;;;;7.00;7.00;17.70;60.10;;;;;;5034139;28;8801;-73
2021/11/04 04:24:06;;;;;;;;;6.67;6.67;17.70;60.10;;;;;;5034103;28;8786;-74
2021/11/04 04:26:32;;;;;;;;;7.00;7.00;17.80;60.00;;;;;;5034337;28;8766;-73
2021/11/04 04:28:59;;;;;;;;;6.00;6.00;17.80;59.90;;;;;;5034399;28;8804;-74
2021/11/04 04:31:25;;;;;;;;;8.67;8.67;17.80;59.90;;;;;;5034346;28;8765;-73
2021/11/04 04:33:50;;;;;;;;;9.00;9.00;17.80;59.50;;;;;;5049688;28;8816;-75
2021/11/04 04:36:16;;;;;;;;;9.67;9.67;17.90;59.50;;;;;;5033937;28;8789;-74
2021/11/04 04:38:42;;;;;;;;;8.67;8.67;17.90;60.50;;;;;;5033632;28;8799;-74
2021/11/04 04:41:08;;;;;;;;;6.33;6.33;17.80;59.50;;;;;;5034067;28;8769;-73
2021/11/04 04:43:33;;;;;;;;;8.33;8.33;17.90;59.50;;;;;;5034139;28;8879;-73
2021/11/04 04:45:59;;;;;;;;;6.00;6.00;17.90;59.50;;;;;;5033879;28;8804;-75
2021/11/04 04:48:25;;;;;;;;;8.00;8.00;17.80;59.70;;;;;;5034136;28;8872;-74
2021/11/04 04:50:51;;;;;;;;;6.33;6.33;17.90;59.60;;;;;;5035166;28;8780;-73
2021/11/04 04:53:17;;;;;;;;;8.00;8.00;17.80;59.70;;;;;;5037476;28;11485;-73
2021/11/04 04:55:43;;;;;;;;;7.00;7.00;17.80;59.90;;;;;;5037484;28;9521;-74
2021/11/04 04:58:09;;;;;;;;;8.00;8.00;17.80;59.60;;;;;;5037616;28;8778;-76
2021/11/04 05:00:35;;;;;;;;;5.67;5.67;17.90;59.50;;;;;;5037491;28;8777;-73
2021/11/04 05:03:01;;;;;;;;;7.33;7.33;18.00;59.30;;;;;;5037358;28;8875;-73
2021/11/04 05:05:27;;;;;;;;;7.33;7.33;18.00;59.20;;;;;;5037518;28;11518;-73
2021/11/04 05:07:53;;;;;;;;;4.33;4.33;18.00;58.90;;;;;;5038132;28;12088;-76
2021/11/04 05:10:19;;;;;;;;;6.33;6.33;18.00;58.90;;;;;;5069938;28;8804;-72
2021/11/04 05:12:48;;;;;;;;;9.00;9.00;18.00;58.60;;;;;;5037644;28;11460;-74
2021/11/04 05:15:15;;;;;;;;;8.00;8.00;18.10;58.30;;;;;;5037438;28;8817;-75
2021/11/04 05:17:41;;;;;;;;;6.33;6.33;18.20;58.40;;;;;;5037582;28;8774;-72
2021/11/04 05:20:09;;;;;;;;;6.67;6.67;18.20;58.10;;;;;;5037559;28;8793;-67
2021/11/04 05:22:35;;;;;;;;;5.33;5.33;18.20;58.20;;;;;;5036632;28;8821;-63
2021/11/04 05:25:00;;;;;;;;;6.00;6.00;18.30;57.90;;;;;;5037153;28;8911;-64
2021/11/04 05:27:28;;;;;;;;;7.00;7.00;18.40;57.70;;;;;;5037257;28;8813;-67
2021/11/04 05:29:54;;;;;;;;;4.00;4.00;18.40;57.40;;;;;;5037158;28;8813;-65
2021/11/04 05:32:22;;;;;;;;;6.00;6.00;18.40;57.40;;;;;;5036985;28;12410;-63
2021/11/04 05:34:48;;;;;;;;;6.00;6.00;18.50;57.20;;;;;;5036583;28;11440;-64
2021/11/04 05:37:14;;;;;;;;;7.33;7.33;18.60;56.90;;;;;;5036942;28;11539;-62
2021/11/04 05:39:40;;;;;;;;;6.00;6.00;18.50;57.00;;;;;;5036132;28;11548;-64
2021/11/04 05:42:08;;;;;;;;;8.67;8.00;18.50;56.90;;;;;;4988210;28;12178;-62
2021/11/04 05:44:37;;;;;;;;;7.67;7.67;18.70;56.30;;;;;;5034916;28;11453;-63
2021/11/04 05:47:04;;;;;;;;;6.00;6.00;18.60;56.70;;;;;;5036283;28;8786;-63
2021/11/04 05:49:30;;;;;;;;;9.00;9.00;18.70;56.10;;;;;;5036368;28;11529;-64
2021/11/04 05:51:56;;;;;;;;;6.67;6.67;18.70;56.20;;;;;;5036100;28;11496;-66
2021/11/04 05:54:21;;;;;;;;;6.33;6.33;18.70;56.30;;;;;;5036599;28;8793;-65
2021/11/04 05:56:47;;;;;;;;;8.67;8.67;18.70;56.10;;;;;;5036488;28;8884;-64
2021/11/04 05:59:13;;;;;;;;;9.00;9.00;18.80;56.00;;;;;;5036623;28;8793;-66
2021/11/04 06:01:39;;;;;;;;;8.67;8.67;18.80;56.10;;;;;;5035764;28;9403;-63
2021/11/04 06:04:05;;;;;;;;;8.67;8.67;18.80;56.30;;;;;;5036048;28;8797;-64
2021/11/04 06:06:30;;;;;;;;;10.67;9.67;18.80;56.40;;;;;;5036097;28;8848;-65
2021/11/04 06:08:56;;;;;;;;;8.67;8.67;18.80;56.10;;;;;;5035952;28;8772;-65
2021/11/04 06:11:22;;;;;;;;;10.67;10.67;18.80;56.20;;;;;;5036142;28;8962;-61
2021/11/04 06:13:48;;;;;;;;;9.00;9.00;18.80;56.30;;;;;;5036027;28;9274;-64
2021/11/04 06:16:13;;;;;;;;;9.33;9.33;18.70;56.50;;;;;;5034946;28;8887;-65
2021/11/04 06:18:40;;;;;;;;;13.33;13.33;18.70;56.50;;;;;;5036162;28;8781;-64
2021/11/04 06:21:07;;;;;;;;;8.00;8.00;18.70;56.70;;;;;;5035843;28;8896;-63
2021/11/04 06:23:33;;;;;;;;;11.67;10.00;18.70;56.50;;;;;;5035682;28;11554;-65
2021/11/04 06:25:59;;;;;;;;;5.33;5.33;18.70;56.70;;;;;;5035990;28;8854;-64
2021/11/04 06:28:25;;;;;;;;;11.33;11.33;18.80;56.50;;;;;;5035647;28;11446;-62
2021/11/04 06:30:50;;;;;;;;;12.67;12.67;18.70;56.70;;;;;;5035926;28;8817;-66
2021/11/04 06:33:16;;;;;;;;;9.33;9.33;18.70;56.70;;;;;;5035643;28;8900;-66
2021/11/04 06:35:42;;;;;;;;;8.67;8.67;18.70;56.80;;;;;;5035826;28;8831;-66
2021/11/04 06:38:09;;;;;;;;;9.00;9.00;18.70;56.90;;;;;;5035858;28;8840;-65
2021/11/04 06:40:35;;;;;;;;;11.00;11.00;18.60;57.40;;;;;;5035473;28;9533;-67
2021/11/04 06:43:01;;;;;;;;;10.00;10.00;18.50;57.80;;;;;;5035687;28;11601;-71
2021/11/04 06:45:27;;;;;;;;;12.33;12.33;18.50;58.00;;;;;;5035732;28;8765;-63
2021/11/04 06:47:55;;;;;;;;;8.33;8.33;18.50;58.10;;;;;;5035409;28;8796;-64
2021/11/04 06:50:25;;;;;;;;;13.67;13.67;18.50;58.30;;;;;;5035253;28;11468;-64
2021/11/04 06:53:10;;;;;;;;;13.00;13.00;18.50;58.40;;;;;;5035313;28;8891;-63
2021/11/04 06:55:42;;;;;;;;;15.00;15.00;18.40;58.50;;;;;;5035236;28;8797;-63
2021/11/04 06:58:14;;;;;;;;;14.00;14.00;18.50;58.30;;;;;;5035301;28;8922;-64
2021/11/04 07:00:47;;;;;;;;;10.33;10.33;18.70;58.30;;;;;;5035210;28;8777;-64
2021/11/04 07:03:25;;;;;;;;;14.33;14.33;18.90;57.80;;;;;;5035106;28;8773;-64
2021/11/04 07:05:59;;;;;;;;;11.00;11.00;18.90;57.70;;;;;;5035074;28;8781;-64
2021/11/04 07:08:27;;;;;;;;;16.33;16.33;19.20;56.60;;;;;;5035322;28;8939;-61
2021/11/04 07:11:01;;;;;;;;;16.33;16.33;19.10;56.80;;;;;;5035130;28;8778;-64
2021/11/04 07:13:29;;;;;;;;;17.00;17.00;19.00;57.40;;;;;;5034796;28;8750;-64
2021/11/04 07:16:00;;;;;;;;;15.00;15.00;19.10;57.40;;;;;;5035045;28;8793;-62
2021/11/04 07:18:27;;;;;;;;;16.33;16.00;19.20;57.20;;;;;;5034734;28;8851;-62
2021/11/04 07:21:02;;;;;;;;;12.67;12.67;19.30;56.90;;;;;;5034718;28;8836;-61
2021/11/04 07:23:41;;;;;;;;;9.67;9.67;19.30;56.90;;;;;;5034230;28;11702;-63
2021/11/04 07:26:08;;;;;;;;;9.67;9.67;19.40;56.70;;;;;;5034821;28;11596;-62
2021/11/04 07:28:39;;;;;;;;;10.33;10.33;19.60;55.20;;;;;;5034752;28;12194;-62
2021/11/04 07:31:09;;;;;;;;;11.00;11.00;19.90;54.40;;;;;;5034551;28;11494;-61
2021/11/04 07:33:35;;;;;;;;;9.33;9.33;20.00;53.90;;;;;;5034979;28;11487;-64
2021/11/04 07:36:03;;;;;;;;;11.33;11.33;20.20;53.10;;;;;;5034795;28;11641;-62
2021/11/04 07:38:33;;;;;;;;;11.00;11.00;20.30;52.90;;;;;;5034655;28;11579;-60
2021/11/04 07:40:59;;;;;;;;;10.67;10.67;20.40;52.50;;;;;;5034286;28;11493;-61
2021/11/04 07:43:29;;;;;;;;;8.33;8.33;20.50;52.50;;;;;;5034540;28;11478;-59
2021/11/04 07:45:55;;;;;;;;;11.00;11.00;20.60;52.20;;;;;;5034354;28;8773;-62
2021/11/04 07:48:22;;;;;;;;;8.67;8.67;20.70;51.60;;;;;;5034230;28;11501;-61
2021/11/04 07:50:49;;;;;;;;;8.00;8.00;20.70;51.60;;;;;;5034281;28;11468;-61
2021/11/04 07:53:17;;;;;;;;;10.00;10.00;20.80;51.50;;;;;;5034865;28;11480;-61
2021/11/04 07:55:42;;;;;;;;;10.67;10.67;20.80;51.30;;;;;;5034204;28;12189;-60
2021/11/04 07:58:08;;;;;;;;;10.33;10.33;20.90;51.50;;;;;;5033893;28;11572;-60
2021/11/04 08:00:34;;;;;;;;;10.67;10.67;21.00;51.20;;;;;;5034183;28;8790;-60
2021/11/04 08:03:00;;;;;;;;;8.00;8.00;21.00;51.10;;;;;;5034350;28;9467;-60
2021/11/04 08:05:26;;;;;;;;;9.00;9.00;21.10;51.20;;;;;;5033994;28;11564;-63
2021/11/04 08:07:52;;;;;;;;;5.00;5.00;21.20;50.70;;;;;;5034141;28;8777;-61
2021/11/04 08:10:19;;;;;;;;;7.25;7.25;21.30;50.20;;;;;;5034366;28;8766;-60
2021/11/04 08:12:46;;;;;;;;;7.50;7.50;21.30;50.20;;;;;;5034051;28;11450;-59
2021/11/04 08:15:13;;;;;;;;;7.00;7.00;21.40;50.10;;;;;;5033881;28;11494;-61
2021/11/04 08:17:39;;;;;;;;;8.25;8.25;21.60;49.90;;;;;;5033993;28;11570;-61
2021/11/04 08:20:07;;;;;;;;;10.00;10.00;21.70;49.40;;;;;;5034386;28;11447;-62
2021/11/04 08:22:34;;;;;;;;;8.25;8.25;21.80;49.40;;;;;;5033765;28;11536;-60
2021/11/04 08:25:00;;;;;;;;;9.00;9.00;21.90;48.90;;;;;;5033907;28;11973;-61
2021/11/04 08:27:26;;;;;;;;;8.75;8.75;22.00;48.40;;;;;;5037858;28;11457;-61
2021/11/04 08:29:53;;;;;;;;;8.75;8.75;22.00;48.10;;;;;;5037884;28;11458;-60
2021/11/04 08:32:19;;;;;;;;;9.00;8.25;22.10;48.10;;;;;;5037843;28;8928;-61
2021/11/04 08:34:44;;;;;;;;;8.50;8.50;22.10;48.50;;;;;;5037939;28;11461;-61
2021/11/04 08:37:11;;;;;;;;;10.00;10.00;22.10;48.00;;;;;;5037736;28;8821;-61
2021/11/04 08:39:38;;;;;;;;;6.50;6.50;22.20;48.20;;;;;;5037909;28;8857;-61
2021/11/04 08:42:05;;;;;;;;;7.00;7.00;22.20;47.80;;;;;;5037392;28;11437;-61
2021/11/04 08:44:32;;;;;;;;;6.25;6.25;22.30;47.90;;;;;;5037525;28;11435;-60
2021/11/04 08:46:59;;;;;;;;;6.75;6.75;22.30;47.50;;;;;;5037556;28;11557;-62
2021/11/04 08:49:25;;;;;;;;;6.25;6.25;22.40;47.50;;;;;;5069845;28;11460;-62
2021/11/04 08:51:54;;;;;;;;;6.00;6.00;22.50;47.00;;;;;;5037745;28;11468;-62
2021/11/04 08:54:22;;;;;;;;;7.25;7.25;22.60;46.70;;;;;;5037259;28;11449;-61
2021/11/04 08:56:48;;;;;;;;;8.25;8.25;22.70;47.10;;;;;;5037336;28;11487;-61
2021/11/04 08:59:14;;;;;;;;;7.00;7.00;22.80;46.60;;;;;;5037269;28;12154;-62
2021/11/04 09:01:41;;;;;;;;;10.75;10.75;23.00;46.10;;;;;;5037387;28;11450;-61
2021/11/04 09:04:07;;;;;;;;;8.25;8.25;23.10;46.10;;;;;;5037029;28;8781;-60
2021/11/04 09:06:32;;;;;;;;;5.00;5.00;23.20;45.80;;;;;;5037019;28;11455;-60
2021/11/04 09:09:02;;;;;;;;;10.75;10.75;23.30;45.30;;;;;;5037050;28;8774;-61
2021/11/04 09:11:29;;;;;;;;;11.25;11.25;23.40;45.10;;;;;;5037073;28;8769;-62
2021/11/04 09:13:54;;;;;;;;;9.00;9.00;23.60;44.70;;;;;;5037179;28;12157;-61
2021/11/04 09:16:20;;;;;;;;;7.00;7.00;23.70;44.80;;;;;;5036660;28;11507;-60
2021/11/04 09:18:46;;;;;;;;;8.75;8.75;23.80;44.40;;;;;;5037290;28;8789;-61
2021/11/04 09:21:12;;;;;;;;;10.25;10.25;23.80;44.70;;;;;;5036791;28;8789;-61
2021/11/04 09:23:38;;;;;;;;;8.75;8.75;23.70;44.80;;;;;;5036648;28;11556;-61
2021/11/04 09:26:04;;;;;;;;;9.75;9.75;23.80;44.00;;;;;;5036742;28;8762;-63
2021/11/04 09:28:30;;;;;;;;;9.25;9.25;23.90;44.30;;;;;;5036572;28;8785;-62
2021/11/04 09:30:56;;;;;;;;;9.25;9.25;24.10;43.50;;;;;;5036563;28;8896;-62
2021/11/04 09:33:21;;;;;;;;;12.75;12.75;24.40;44.40;;;;;;5036559;28;11506;-61
2021/11/04 09:35:49;;;;;;;;;11.25;11.25;24.70;43.40;;;;;;5036875;28;8820;-62
2021/11/04 09:38:15;;;;;;;;;7.25;7.25;24.70;41.90;;;;;;5035527;28;8800;-61
2021/11/04 09:40:41;;;;;;;;;8.50;8.50;24.60;42.00;;;;;;5036465;28;11457;-63
2021/11/04 09:43:06;;;;;;;;;10.75;10.75;24.30;43.30;;;;;;5036553;28;8773;-62
2021/11/04 09:45:33;;;;;;;;;9.75;9.75;24.00;42.90;;;;;;5036527;28;8778;-62
2021/11/04 09:47:59;;;;;;;;;8.75;8.75;24.00;42.80;;;;;;5036566;28;8765;-63
2021/11/04 09:50:25;;;;;;;;;10.00;10.00;24.00;42.30;;;;;;5036632;28;11456;-63
2021/11/04 09:52:55;;;;;;;;;11.25;10.25;24.20;42.00;;;;;;5068745;28;8813;-63
2021/11/04 09:55:25;;;;;;;;;13.00;13.00;24.40;41.60;;;;;;5036325;28;11529;-63
2021/11/04 09:57:54;;;;;;;;;11.75;11.75;24.50;41.30;;;;;;5036289;28;11601;-64
2021/11/04 10:00:22;;;;;;;;;9.25;9.25;24.70;41.30;;;;;;5036300;28;11553;-64
2021/11/04 10:03:03;;;;;;;;;9.25;9.25;25.40;39.80;;;;;;5036223;28;11570;-64
2021/11/04 10:05:29;;;;;;;;;8.75;8.75;28.50;36.90;;;;;;5036355;28;11519;-62
2021/11/04 10:07:56;;;;;;;;;8.00;8.00;27.00;36.50;;;;;;5036078;28;11449;-63
2021/11/04 10:10:22;;;;;;;;;6.25;6.25;25.70;39.10;;;;;;5035987;28;8777;-63
2021/11/04 10:12:55;;;;;;;;;6.00;6.00;24.80;40.70;;;;;;5036002;28;11574;-63
2021/11/04 10:15:21;;;;;;;;;9.00;9.00;24.40;41.40;;;;;;5036125;28;8813;-63
2021/11/04 10:17:47;;;;;;;;;7.00;7.00;24.50;41.90;;;;;;5035841;28;11448;-63
2021/11/04 10:20:22;;;;;;;;;9.00;9.00;24.30;41.70;;;;;;5036104;28;11465;-61
2021/11/04 10:23:02;;;;;;;;;7.25;7.25;24.10;42.30;;;;;;5035697;28;8837;-62
2021/11/04 10:25:28;;;;;;;;;11.50;11.50;24.10;42.70;;;;;;5035693;28;11483;-62
2021/11/04 10:27:54;;;;;;;;;11.00;11.00;25.00;41.90;;;;;;5035883;28;11529;-63
2021/11/04 10:30:40;;;;;;;;;10.50;10.50;24.60;42.20;;;;;;5035586;28;11479;-62
2021/11/04 10:33:37;;;;;;;;;10.75;10.75;24.30;42.80;;;;;;5035627;28;12200;-61
2021/11/04 10:36:06;;;;;;;;;12.75;12.75;24.40;43.10;;;;;;4993802;28;11476;-61
2021/11/04 10:38:44;;;;;;;;;10.00;10.00;25.00;42.70;;;;;;4994164;28;11615;-63
2021/11/04 10:41:23;;;;;;;;;10.50;10.50;25.20;42.30;;;;;;4994038;28;11421;-62
2021/11/04 10:43:57;;;;;;;;;12.00;12.00;25.40;41.70;;;;;;4993992;28;11439;-61
2021/11/04 10:46:28;;;;;;;;;11.50;11.50;24.80;43.00;;;;;;4993853;28;11500;-63
2021/11/04 10:49:02;;;;;;;;;13.00;13.00;24.60;44.10;;;;;;4993518;28;11429;-62
2021/11/04 10:51:29;;;;;;;;;12.00;12.00;24.50;43.80;;;;;;4993851;28;11407;-62
2021/11/04 10:54:10;;;;;;;;;15.25;15.25;25.20;42.90;;;;;;4993770;28;11414;-62
2021/11/04 10:56:39;;;;;;;;;12.50;12.50;26.00;41.80;;;;;;4993777;28;11463;-62
2021/11/04 10:59:16;;;;;;;;;15.75;15.75;26.80;39.70;;;;;;4993508;28;11399;-63
2021/11/04 11:01:44;;;;;;;;;17.50;17.50;26.50;39.80;;;;;;4993517;28;11427;-62
2021/11/04 11:04:16;;;;;;;;;14.00;14.00;29.20;36.70;;;;;;4993675;28;11444;-60
2021/11/04 11:06:49;;;;;;;;;9.00;9.00;34.30;30.00;;;;;;4993456;28;11421;-61
2021/11/04 11:09:17;;;;;;;;;11.00;11.00;33.40;27.30;;;;;;4993370;28;11636;-60
2021/11/04 11:11:49;;;;;;;;;5.00;5.00;30.80;29.50;;;;;;5002301;28;11581;-61
2021/11/04 11:14:19;;;;;;;;;5.00;5.00;30.30;30.10;;;;;;5035051;28;11428;-61
2021/11/04 11:16:49;;;;;;;;;5.75;5.75;30.50;30.00;;;;;;5034944;28;11605;-59
2021/11/04 11:19:27;;;;;;;;;8.00;8.00;33.10;27.40;;;;;;5035220;28;11456;-60
2021/11/04 11:21:54;;;;;;;;;8.75;8.75;32.70;27.10;;;;;;5034433;28;11493;-61
2021/11/04 11:24:41;;;;;;;;;8.25;8.25;32.40;27.60;;;;;;5034733;28;11578;-62
2021/11/04 11:27:17;;;;;;;;;8.00;8.00;33.10;27.30;;;;;;5034563;28;11605;-62
2021/11/04 11:29:46;;;;;;;;;9.00;9.00;34.30;26.10;;;;;;5034818;28;12218;-61
2021/11/04 11:32:19;;;;;;;;;6.00;6.00;37.10;25.00;;;;;;5034750;28;11439;-61
2021/11/04 11:34:46;;;;;;;;;5.75;5.75;38.50;23.30;;;;;;5034464;28;11446;-60
2021/11/04 11:37:19;;;;;;;;;5.50;5.50;38.30;22.30;;;;;;5034425;28;11547;-60
2021/11/04 11:39:54;;;;;;;;;5.00;5.00;37.60;22.40;;;;;;5034427;28;11565;-60
2021/11/04 11:42:26;;;;;;;;;5.00;5.00;34.90;24.10;;;;;;5034718;28;11465;-60
2021/11/04 11:44:58;;;;;;;;;6.00;6.00;31.80;26.80;;;;;;5034384;28;11466;-60
2021/11/04 11:47:33;;;;;;;;;5.75;5.75;30.00;28.60;;;;;;5034539;28;11469;-61
2021/11/04 11:50:27;;;;;;;;;7.25;7.25;28.90;29.60;;;;;;5034127;28;11476;-62
2021/11/04 11:53:03;;;;;;;;;6.75;6.75;28.10;30.00;;;;;;5032845;28;11490;-60
2021/11/04 11:55:45;;;;;;;;;4.50;4.50;27.50;31.20;;;;;;5033906;28;11563;-60
2021/11/04 11:58:20;;;;;;;;;10.25;10.25;27.30;30.90;;;;;;5033034;28;11464;-62
2021/11/04 12:00:54;;;;;;;;;7.75;7.75;26.90;32.30;;;;;;5033379;28;11568;-62
2021/11/04 12:06:04;;;;;;;;;4.75;4.75;26.40;33.20;;;;;;5034121;28;11423;-62
2021/11/04 12:08:34;;;;;;;;;8.00;8.00;26.30;33.40;;;;;;5034367;28;12351;-62
2021/11/04 12:11:07;;;;;;;;;6.00;6.00;26.30;33.60;;;;;;5034268;28;11528;-62
2021/11/04 12:13:36;;;;;;;;;7.75;7.75;26.20;33.70;;;;;;5034163;28;11467;-61
2021/11/04 12:16:16;;;;;;;;;5.50;5.50;25.90;34.40;;;;;;5034169;28;11595;-62
2021/11/04 12:18:53;;;;;;;;;6.00;6.00;25.60;34.70;;;;;;5034279;28;11500;-63
2021/11/04 12:21:21;;;;;;;;;6.00;6.00;25.50;34.80;;;;;;5034109;28;12054;-63
2021/11/04 12:23:48;;;;;;;;;5.00;5.00;25.40;35.10;;;;;;5033809;28;11489;-60
2021/11/04 12:26:14;;;;;;;;;7.00;7.00;25.20;36.10;;;;;;5034058;28;11462;-62
2021/11/04 12:28:46;;;;;;;;;5.25;5.25;25.10;36.80;;;;;;5033771;28;11463;-64
2021/11/04 12:31:20;;;;;;;;;10.25;10.25;25.00;37.90;;;;;;5032569;28;11463;-63
2021/11/04 12:33:46;;;;;;;;;6.00;6.00;24.90;39.90;;;;;;5033220;28;12137;-63
2021/11/04 12:36:24;;;;;;;;;8.00;8.00;24.70;41.20;;;;;;5034249;28;11491;-64
2021/11/04 12:38:50;;;;;;;;;9.50;9.50;24.50;43.20;;;;;;5033343;28;11458;-62
2021/11/04 12:41:18;;;;;;;;;7.25;7.25;24.40;44.10;;;;;;5033254;28;11444;-63
2021/11/04 12:43:45;;;;;;;;;5.50;5.50;24.30;44.50;;;;;;5033192;28;11456;-62
2021/11/04 12:46:21;;;;;;;;;8.00;8.00;24.10;45.60;;;;;;5033646;28;11495;-62
2021/11/04 12:48:50;;;;;;;;;5.75;5.75;23.80;47.70;;;;;;5030761;28;11432;-62
2021/11/04 12:51:17;;;;;;;;;8.00;8.00;23.60;47.60;;;;;;5031680;28;11535;-62
2021/11/04 12:53:58;;;;;;;;;7.00;7.00;23.40;48.40;;;;;;5033568;28;11486;-59